AirNav   Duncan Aviation - Near you to keep you flying
 
 1117 users online  

K23 Cooperstown-Westville Airport
Cooperstown, New York, USA

GOING TO COOPERSTOWN?


FAA INFORMATION EFFECTIVE 26 JANUARY 2023

Location

FAA Identifier: K23
Lat/Long: 42-37-45.2730N 074-53-27.5560W
42-37.754550N 074-53.459267W
42.6292425,-74.8909878
(estimated)
Elevation: 1260 ft. / 384 m (estimated)
Variation: 13W (1985)
From city: 4 miles SE of COOPERSTOWN, NY
Time zone: UTC -5 (UTC -4 during Daylight Saving Time)
Zip code: 13326

Airport Operations

Airport use: Open to the public
Activation date: 05/1956
Control tower: no
ARTCC: BOSTON CENTER
FSS: BUFFALO FLIGHT SERVICE STATION
NOTAMs facility: BUF (NOTAM-D service available)
Attendance: UNATNDD
CALL MGR FOR SERVICES.
Wind indicator: yes
Segmented circle: yes
Lights: ACTVT MIRL RY 02/20 - CTAF.

Airport Communications

CTAF/UNICOM: 122.8
WX AWOS-3 at N66 (10 nm SW): 119.575 (607-643-0253)

Nearby radio navigation aids

VOR radial/distance  VOR name  Freq  Var
RKAr069/18.2ROCKDALE VOR/DME112.6011W
DNYr017/27.2DELANCEY VOR/DME112.1011W
HNKr040/38.9HANCOCK VOR/DME116.8011W

 
NDB name  Hdg/Dist  Freq  Var  ID
JOHNSTOWN242/33.252314WJJH .--- .--- ....

Airport Services

Fuel available: 100LL
100LL:SELF SERVICE FUELING AVBL.
Parking: hangars and tiedowns
Airframe service: MAJOR
Powerplant service: MAJOR
Bottled oxygen: NONE
Bulk oxygen: NONE

Runway Information

Runway 2/20

Dimensions: 2337 x 125 ft. / 712 x 38 m
RY EDGE DENOTED BY WHITE TIRES AROUND EDGE LIGHTS.
Surface: turf, in fair condition
Runway edge lights: non-standard
NSTD MIRL; SPACING; 2 THLD LGTS EACH SIDE.
RUNWAY 2  RUNWAY 20
Traffic pattern: rightleft
Visual slope indicator: non-standard VASI systemnon-standard VASI system
Obstructions: 30 ft. trees, 52 ft. from runway, 84 ft. right of centerline, 1:1 slope to clear
RWY 02; +60 FT TREE, 359 FT FROM THRESHOLD, 145 FT LEFT
9 ft. crops, 51 ft. from runway, 1 ft. both sides of centerline
RWY 20; +37 FT POLE, 394 FT FROM THRESHOLD, 163 FT RIGHT

Airport Ownership and Management from official FAA records

Ownership: Privately-owned
Owner: RICK WILLIAMS
866 ST. RT. 166, PO BOX 52, PO BOX 1285
COOPERSTOWN, NY 13326-8661
Phone (607) 437-8308
Manager: RICK WILLIAMS
BODEE AVIATION, LLC, PO BOX 52
COOPERSTOWN, NY 13326
Phone 607-437-8308

Airport Operational Statistics

Aircraft based on the field: 30
Single engine airplanes: 23
Multi engine airplanes: 1
Ultralights: 6
    
Aircraft operations: avg 46/week *
50% transient general aviation
50% local general aviation
* for 12-month period ending 23 August 2017

Additional Remarks

FOR CD CTC BOSTON ARTCC AT 603-879-6859.

Instrument Procedures

There are no published instrument procedures at K23.

Some nearby airports with instrument procedures:

N66 - Albert S Nader Regional Airport (10 nm SW)
KOIC - LT Warren Eaton Airport (28 nm W)
N23 - Sidney Municipal Airport (30 nm SW)
KVGC - Hamilton Municipal Airport (32 nm NW)
NY0 - Fulton County Airport (33 nm NE)
 
Loc | Ops | Rwys | IFR | FBO | Links
Com | Nav | Svcs | Stats | Notes
Area around K23 (Cooperstown-Westville Airport)
 
Road maps at: MapQuest Bing Google
 
Aerial photo
WARNING: Photo may not be current or correct
Aerial photo of K23 (Cooperstown-Westville Airport)
Photo by Michael Kilcher
As seen circa 2007
looking south.

Do you have a better or more recent aerial photo of Cooperstown-Westville Airport that you would like to share? If so, please send us your photo.

 
Sectional chart

 
Airport distance calculator
Flying to Cooperstown-Westville Airport? Find the distance to fly.

From to K23

Sunrise and sunset
Times for 04-Feb-2023
 Local
(UTC-5)
 Zulu
(UTC)
Morning civil twilight06:4211:42
Sunrise07:1212:12
Sunset17:1622:16
Evening civil twilight17:4522:45

Current date and time
Zulu (UTC)  04-Feb-2023 23:03:24
Local (UTC-5)  04-Feb-2023 18:03:24
 
METAR
KOIC 
28nm W 
042255Z AUTO 18008KT 10SM OVC065 M10/M18 A3031 RMK AO2 T11051181
KVGC 
32nm NW 
042255Z AUTO 16008KT 7SM OVC055 M11/M18 A3026 RMK AO2
KNY0 
33nm NE 
042103Z AUTO 18003KT 10SM OVC090 M16/M26 A3039 RMK AO2
KRME 
42nm NW 
042253Z 10010KT 10SM OVC065 M14/M21 A3034 RMK AO2 SLP288 T11391206
KSCH 
45nm E 
042255Z 13005KT 15SM OVC085 M13/M27 A3043
KALB 
49nm E 
042251Z 15004KT 10SM BKN085 OVC130 M13/M24 A3044 RMK AO2 SLP316 OVC V BKN T11331239 $
TAF
KRME 
42nm NW 
042123Z 0421/0518 10010KT P6SM OVC080 FM050700 11008KT P6SM OVC040 WS020/22035KT FM051600 20010KT P6SM BKN160
KALB 
49nm E 
041722Z 0418/0518 20008KT P6SM BKN080 FM050000 16010KT P6SM SCT080 BKN200 FM051500 18012G20KT P6SM BKN150
NOTAMs
Click for the latest NOTAMs
NOTAMs are issued by the DoD/FAA and will open in a separate window not controlled by AirNav.

 

 
 

FBO, Fuel Providers, and Aircraft Ground Support

  
 Business Name 
 
 Contact 
 
 Services / Description 
 
Fuel Prices
 
Comments
  
BoDee Aviation 607-287-7032
[email]
Airport management, Aviation fuel, Aircraft parking (ramp or tiedown), Hangar leasing / sales, Flight training, Aerial tours / aerial sightseeing, Aerial photography, ...

More info about BoDee Aviation
independent
no prices available
 
   write
Update Fuel Prices
 

Would you like to see your business listed on this page?

 If your business provides an interesting product or service to pilots, flight crews, aircraft, or users of the Cooperstown-Westville Airport, you should consider listing it here.  To start the listing process, click on the button below
 
Add a business
 

Other Pages about Cooperstown-Westville Airport

www.cooperstownwestvilleairport.com
 
Update a link
 
Copyright © AirNav, LLC. All rights reserved. Privacy Policy  Contact